Strona główna
METAR-TAF:

METAR-TAF

Lotnisko :

Port lotniczy Arad

Arad, Rumunia

Szerokość geograficzna: 46-12N, Długość geograficzna: 021-24E, wysokość: 117 m

Aktualna obserwacja pogody

Raport powstał 25 minut temu, godzina 12:00 UTC
Wiatr 6 kt od wschodnio-południowy wschód, zmienny między wschód i południowo-południowy wschód
Temperatura 13°C
Wilgotność 41%
Ciśnienie 1013 hPa
Widzialność 10 km lub więcej
Brak chmur poniżej 1500 m i brak chmur cumulonimbus

METAR: LRAR 031200Z 12006KT 080V150 CAVOK 13/M00 Q1013

czas: 15:25 (12:25 UTC)

Prognoza

Raport powstał 1 godzina i 25 minut temu, godzina 11:00 UTC
Prognoza ważna od 03 godzina 12 UTC do 03 godzina 21 UTC
Wiatr 4 kt z kierunków zmiennych
Widzialność 10 km lub więcej
Brak chmur poniżej 1500 m i brak chmur cumulonimbus

TAF: LRAR 031100Z 0312/0321 VRB04KT CAVOK

Obserwacja i prognoza pogody dla ponad 4000 lotnisk (raport METAR i TAF).

Dostępne stacje oznaczono żółtymi i czerwonymi punktami na mapie.

Najedź kursorem aby zobaczyć nazwę stacji.

Kliknij aby zobaczyć obserwacje i prognozy pogody.

Aby zmienić mapę: kliknij na zielony przycisk z czarnym krzyżykiem, aby powiększyć; na zielony przycisk z myślnikiem, aby pomniejszyć; na zielone strzałki, aby przejść do map sąsiednich.


METAR-TAF: